Littlefork, Minnesota
Current Conditions -  °F | °C
As of 4:55 AM on Monday 20 Oct 2014 (Local Time) from KINL Reporting Station
Broken Clouds Broken Clouds  
Wind Chill: 33°   Ceiling: 3400
Heat Index: 33°   Visibility: 10mi
Dew Point: 33°   Wind: 3mph
Humidity: 100%   Direction: 290°WNW
Pressure: 29.91"   Gusts: NA
Location:  48.4°N, 93.56°W
Report Text: KINL 200955Z AUTO 29003KT 10SM BKN034 01/01 A2991 RMK AO2 VIS 3/4 RWY 31 SLP137 T00060006
Loading
Personal Weather Stations






























Interactive Weather Map
Tropical Storm Tracking
New forecast layout! Learn more

10-Day Weather Forecast

Advertisements
Track Severe Weather on mobile